Time;durP1;ratioP1;P1;durP2;ratioP2;P2;SDS_P1;SDS_P2;PMS_P1;PMS_P2;Temp;Humidity;BMP_temperature;BMP_pressure;BME280_temperature;BME280_humidity;BME280_pressure;Samples;Min_cycle;Max_cycle;Signal;HPM_P1;HPM_P2
2021/08/23 00:00:10;;;;;;;16.15;2.28;;;;;;;;;;5010859;28;20073;-55
2021/08/23 00:02:37;;;;;;;15.10;2.30;;;;;;;;;;5011573;28;20029;-60
2021/08/23 00:05:04;;;;;;;15.85;2.20;;;;;;;;;;5010721;28;20076;-57
2021/08/23 00:07:31;;;;;;;16.17;2.80;;;;;;;;;;5006044;28;20108;-54
2021/08/23 00:09:58;;;;;;;17.27;2.88;;;;;;;;;;5003150;28;20030;-51
2021/08/23 00:12:27;;;;;;;18.80;2.58;;;;;;;;;;5012460;28;20026;-51
2021/08/23 00:14:54;;;;;;;15.43;2.95;;;;;;;;;;5003039;28;20054;-57
2021/08/23 00:17:21;;;;;;;28.17;3.30;;;;;;;;;;5004324;28;20030;-53
2021/08/23 00:19:48;;;;;;;17.67;3.30;;;;;;;;;;5004502;28;20232;-59
2021/08/23 00:22:33;;;;;;;20.73;3.00;;;;;;;;;;5007365;28;20018;-59
2021/08/23 00:25:01;;;;;;;26.88;3.10;;;;;;;;;;5005155;28;20037;-57
2021/08/23 00:27:28;;;;;;;23.35;2.47;;;;;;;;;;5004166;28;20530;-56
2021/08/23 00:29:56;;;;;;;21.40;2.65;;;;;;;;;;5015362;28;20022;-60
2021/08/23 00:32:24;;;;;;;33.50;4.53;;;;;;;;;;5013137;28;20105;-59
2021/08/23 00:34:51;;;;;;;18.45;2.88;;;;;;;;;;5012712;28;20532;-58
2021/08/23 00:37:18;;;;;;;23.88;3.08;;;;;;;;;;5011014;28;20044;-60
2021/08/23 00:39:45;;;;;;;20.30;2.78;;;;;;;;;;5007764;28;20113;-62
2021/08/23 00:42:13;;;;;;;16.95;2.25;;;;;;;;;;5004101;28;20184;-57
2021/08/23 00:44:42;;;;;;;20.90;2.80;;;;;;;;;;5011544;28;20084;-63
2021/08/23 00:47:09;;;;;;;22.13;2.33;;;;;;;;;;5007999;28;20045;-59
2021/08/23 00:49:37;;;;;;;22.48;3.08;;;;;;;;;;5004091;28;20026;-58
2021/08/23 00:52:05;;;;;;;28.33;3.70;;;;;;;;;;5000894;28;20015;-60
2021/08/23 00:54:34;;;;;;;18.95;3.42;;;;;;;;;;5009746;28;20040;-59
2021/08/23 00:57:01;;;;;;;20.30;6.97;;;;;;;;;;5004876;28;20450;-59
2021/08/23 00:59:29;;;;;;;35.13;11.68;;;;;;;;;;4999620;28;20444;-61
2021/08/23 01:01:56;;;;;;;40.78;15.40;;;;;;;;;;5010327;28;20113;-60
2021/08/23 01:04:39;;;;;;;38.22;15.75;;;;;;;;;;5007570;28;20034;-60
2021/08/23 01:07:10;;;;;;;31.55;14.38;;;;;;;;;;5007564;28;20026;-59
2021/08/23 01:09:39;;;;;;;31.70;14.35;;;;;;;;;;5002728;28;20484;-56
2021/08/23 01:12:07;;;;;;;34.95;13.27;;;;;;;;;;5007974;28;20469;-57
2021/08/23 01:14:34;;;;;;;27.95;11.88;;;;;;;;;;5009687;28;20026;-58
2021/08/23 01:17:02;;;;;;;49.80;11.75;;;;;;;;;;4998753;28;20493;-56
2021/08/23 01:19:31;;;;;;;38.60;10.95;;;;;;;;;;4994306;28;20034;-57
2021/08/23 01:22:00;;;;;;;28.95;10.50;;;;;;;;;;4999278;28;20026;-50
2021/08/23 01:24:30;;;;;;;32.20;10.40;;;;;;;;;;5005248;28;20037;-51
2021/08/23 01:26:58;;;;;;;24.92;9.50;;;;;;;;;;5006465;28;20046;-50
2021/08/23 01:29:32;;;;;;;40.88;10.00;;;;;;;;;;4998892;28;20366;-48
2021/08/23 01:31:59;;;;;;;32.38;9.18;;;;;;;;;;5011339;28;20586;-45
2021/08/23 01:34:30;;;;;;;34.05;9.50;;;;;;;;;;5012298;28;20091;-44
2021/08/23 01:36:57;;;;;;;33.60;9.43;;;;;;;;;;5011399;28;20037;-45
2021/08/23 01:39:24;;;;;;;27.92;7.55;;;;;;;;;;5005303;28;20037;-45
2021/08/23 01:41:51;;;;;;;30.85;7.45;;;;;;;;;;5011428;28;20434;-46
2021/08/23 01:44:18;;;;;;;26.92;7.20;;;;;;;;;;5011185;28;20512;-47
2021/08/23 01:46:45;;;;;;;19.02;6.55;;;;;;;;;;5011263;28;20442;-44
2021/08/23 01:49:12;;;;;;;27.30;6.72;;;;;;;;;;5007675;28;20694;-43
2021/08/23 01:51:39;;;;;;;30.17;6.53;;;;;;;;;;5010501;28;20026;-47
2021/08/23 01:54:07;;;;;;;16.90;6.13;;;;;;;;;;5010823;28;20398;-43
2021/08/23 01:56:34;;;;;;;21.60;5.97;;;;;;;;;;5011838;28;20373;-47
2021/08/23 01:59:01;;;;;;;20.92;6.45;;;;;;;;;;5010651;28;20065;-42
2021/08/23 02:01:29;;;;;;;24.20;7.10;;;;;;;;;;5008583;28;20100;-47
2021/08/23 02:03:56;;;;;;;21.73;6.28;;;;;;;;;;5012059;28;20072;-49
2021/08/23 02:06:24;;;;;;;22.63;5.85;;;;;;;;;;5011666;28;20033;-46
2021/08/23 02:08:51;;;;;;;28.88;6.28;;;;;;;;;;5011266;28;20076;-47
2021/08/23 02:11:19;;;;;;;20.88;5.03;;;;;;;;;;5006243;28;20064;-48
2021/08/23 02:13:46;;;;;;;20.98;5.03;;;;;;;;;;5011975;28;20474;-46
2021/08/23 02:16:13;;;;;;;16.95;5.18;;;;;;;;;;5011675;28;20069;-50
2021/08/23 02:18:40;;;;;;;15.07;4.95;;;;;;;;;;5011591;28;20018;-47
2021/08/23 02:21:07;;;;;;;13.93;4.57;;;;;;;;;;5007108;28;20513;-47
2021/08/23 02:23:34;;;;;;;14.65;4.88;;;;;;;;;;5011281;28;20504;-47
2021/08/23 02:26:01;;;;;;;14.20;4.45;;;;;;;;;;5011655;28;20494;-46
2021/08/23 02:28:28;;;;;;;14.57;3.90;;;;;;;;;;5011459;28;20398;-47
2021/08/23 02:30:55;;;;;;;17.45;4.57;;;;;;;;;;5007242;28;20014;-49
2021/08/23 02:33:22;;;;;;;15.55;4.30;;;;;;;;;;5011502;28;20071;-47
2021/08/23 02:35:49;;;;;;;19.98;4.35;;;;;;;;;;5011471;28;20041;-49
2021/08/23 02:38:17;;;;;;;13.95;4.68;;;;;;;;;;5011572;28;20378;-47
2021/08/23 02:40:44;;;;;;;17.80;5.25;;;;;;;;;;5006795;28;20149;-47
2021/08/23 02:43:11;;;;;;;14.00;4.20;;;;;;;;;;5011538;28;20026;-49
2021/08/23 02:45:38;;;;;;;13.25;4.60;;;;;;;;;;5011378;28;20477;-46
2021/08/23 02:48:05;;;;;;;8.52;3.83;;;;;;;;;;5011531;28;20026;-47
2021/08/23 02:50:32;;;;;;;10.43;3.45;;;;;;;;;;5008709;28;20086;-41
2021/08/23 02:52:59;;;;;;;11.07;3.50;;;;;;;;;;5009491;28;20397;-47
2021/08/23 02:55:26;;;;;;;13.98;3.95;;;;;;;;;;5011319;28;20041;-45
2021/08/23 02:57:53;;;;;;;15.13;3.50;;;;;;;;;;5011582;28;20500;-47
2021/08/23 03:00:20;;;;;;;8.63;3.38;;;;;;;;;;5011313;28;20042;-49
2021/08/23 03:02:47;;;;;;;13.82;4.38;;;;;;;;;;5006616;28;20025;-47
2021/08/23 03:05:14;;;;;;;10.63;3.67;;;;;;;;;;5011708;28;20029;-50
2021/08/23 03:07:41;;;;;;;13.30;3.90;;;;;;;;;;5011074;28;20018;-47
2021/08/23 03:10:08;;;;;;;6.13;3.10;;;;;;;;;;5011193;28;20463;-47
2021/08/23 03:12:36;;;;;;;8.90;2.80;;;;;;;;;;5007149;28;20077;-48
2021/08/23 03:15:03;;;;;;;11.73;3.35;;;;;;;;;;5011206;28;20022;-47
2021/08/23 03:17:30;;;;;;;15.48;4.00;;;;;;;;;;5011095;28;20403;-47
2021/08/23 03:19:57;;;;;;;14.02;3.33;;;;;;;;;;5010033;28;20042;-49
2021/08/23 03:22:24;;;;;;;8.27;2.85;;;;;;;;;;5009003;28;20034;-45
2021/08/23 03:24:51;;;;;;;8.23;3.22;;;;;;;;;;5014472;28;20105;-49
2021/08/23 03:27:18;;;;;;;10.40;3.47;;;;;;;;;;5014735;28;20105;-47
2021/08/23 03:29:50;;;;;;;11.88;3.10;;;;;;;;;;5014473;28;20117;-46
2021/08/23 03:32:17;;;;;;;10.20;3.30;;;;;;;;;;5010029;28;20057;-46
2021/08/23 03:34:45;;;;;;;9.50;3.00;;;;;;;;;;5014609;28;20356;-49
2021/08/23 03:37:12;;;;;;;9.43;3.03;;;;;;;;;;5014569;28;20088;-49
2021/08/23 03:39:39;;;;;;;9.85;2.80;;;;;;;;;;5014493;28;20030;-43
2021/08/23 03:42:08;;;;;;;9.55;2.80;;;;;;;;;;5010064;28;20521;-45
2021/08/23 03:44:35;;;;;;;7.82;2.95;;;;;;;;;;5014447;28;20069;-47
2021/08/23 03:47:03;;;;;;;12.32;3.25;;;;;;;;;;5014455;28;20488;-48
2021/08/23 03:49:30;;;;;;;7.95;2.80;;;;;;;;;;5014281;28;20014;-49
2021/08/23 03:51:57;;;;;;;9.30;2.80;;;;;;;;;;5012448;28;20037;-45
2021/08/23 03:54:24;;;;;;;9.93;2.78;;;;;;;;;;5011683;28;20026;-49
2021/08/23 03:56:51;;;;;;;9.75;2.63;;;;;;;;;;5014362;28;20034;-47
2021/08/23 03:59:18;;;;;;;8.85;2.70;;;;;;;;;;5014115;28;20026;-47
2021/08/23 04:01:45;;;;;;;10.10;2.30;;;;;;;;;;5012793;28;20038;-47
2021/08/23 04:04:12;;;;;;;7.28;2.28;;;;;;;;;;5009763;28;20022;-41
2021/08/23 04:06:44;;;;;;;7.55;2.22;;;;;;;;;;5000516;28;20033;-48
2021/08/23 04:09:15;;;;;;;7.53;2.13;;;;;;;;;;5013625;28;20026;-46
2021/08/23 04:11:42;;;;;;;8.90;2.15;;;;;;;;;;5013607;28;20026;-47
2021/08/23 04:14:09;;;;;;;7.10;2.60;;;;;;;;;;5009727;28;20021;-50
2021/08/23 04:16:36;;;;;;;8.48;2.83;;;;;;;;;;5013445;28;20030;-46
2021/08/23 04:19:03;;;;;;;9.85;2.90;;;;;;;;;;5014042;28;20105;-48
2021/08/23 04:21:30;;;;;;;6.15;2.30;;;;;;;;;;5013791;28;20434;-47
2021/08/23 04:23:57;;;;;;;7.53;2.40;;;;;;;;;;5008873;28;20080;-47
2021/08/23 04:26:24;;;;;;;13.15;2.10;;;;;;;;;;5013071;28;20034;-47
2021/08/23 04:28:51;;;;;;;4.47;1.80;;;;;;;;;;5013357;28;20052;-46
2021/08/23 04:31:18;;;;;;;6.63;1.85;;;;;;;;;;5013352;28;20026;-47
2021/08/23 04:33:46;;;;;;;9.98;2.47;;;;;;;;;;5007769;28;20029;-46
2021/08/23 04:36:14;;;;;;;8.43;1.90;;;;;;;;;;5013497;28;20504;-48
2021/08/23 04:38:41;;;;;;;6.28;1.83;;;;;;;;;;5013968;28;20527;-49
2021/08/23 04:41:10;;;;;;;9.68;2.08;;;;;;;;;;5013778;28;20609;-46
2021/08/23 04:43:38;;;;;;;8.05;2.13;;;;;;;;;;5009160;28;20041;-46
2021/08/23 04:46:05;;;;;;;9.00;2.20;;;;;;;;;;5014021;28;20378;-46
2021/08/23 04:48:32;;;;;;;4.95;1.75;;;;;;;;;;5013790;28;20523;-48
2021/08/23 04:50:59;;;;;;;5.53;1.80;;;;;;;;;;5013727;28;20381;-47
2021/08/23 04:53:28;;;;;;;6.07;1.90;;;;;;;;;;5011416;28;20026;-44
2021/08/23 04:55:56;;;;;;;8.52;1.65;;;;;;;;;;5011526;28;20033;-46
2021/08/23 04:58:23;;;;;;;7.05;2.25;;;;;;;;;;5013036;28;20377;-43
2021/08/23 05:00:50;;;;;;;3.70;1.50;;;;;;;;;;5013531;28;20386;-45
2021/08/23 05:03:17;;;;;;;6.45;1.63;;;;;;;;;;5013232;28;20108;-49
2021/08/23 05:05:44;;;;;;;7.32;2.00;;;;;;;;;;5009022;28;20401;-49
2021/08/23 05:08:11;;;;;;;5.65;1.98;;;;;;;;;;5013095;28;20024;-47
2021/08/23 05:10:38;;;;;;;5.57;1.45;;;;;;;;;;5013113;28;20393;-46
2021/08/23 05:13:05;;;;;;;6.03;1.55;;;;;;;;;;5012880;28;20022;-48
2021/08/23 05:15:32;;;;;;;4.15;1.73;;;;;;;;;;5009074;28;20032;-49
2021/08/23 05:17:59;;;;;;;5.25;1.45;;;;;;;;;;5012670;28;20389;-46
2021/08/23 05:20:26;;;;;;;5.32;1.60;;;;;;;;;;5013078;28;20393;-47
2021/08/23 05:22:54;;;;;;;3.50;1.60;;;;;;;;;;5012853;28;20081;-46
2021/08/23 05:25:21;;;;;;;5.00;1.63;;;;;;;;;;5008166;28;20448;-48
2021/08/23 05:27:48;;;;;;;5.65;1.52;;;;;;;;;;5012393;28;20375;-46
2021/08/23 05:30:15;;;;;;;2.78;1.45;;;;;;;;;;5012780;28;20092;-49
2021/08/23 05:32:42;;;;;;;5.70;1.38;;;;;;;;;;5012352;28;20042;-44
2021/08/23 05:35:09;;;;;;;6.30;1.70;;;;;;;;;;5007962;28;20584;-45
2021/08/23 05:37:36;;;;;;;3.63;1.42;;;;;;;;;;5012754;28;20049;-44
2021/08/23 05:40:04;;;;;;;4.03;1.58;;;;;;;;;;5012324;28;20038;-47
2021/08/23 05:42:31;;;;;;;3.60;1.48;;;;;;;;;;5012186;28;20076;-45
2021/08/23 05:44:58;;;;;;;2.75;1.40;;;;;;;;;;5008330;28;20034;-45
2021/08/23 05:47:25;;;;;;;4.78;1.48;;;;;;;;;;5012001;28;20080;-48
2021/08/23 05:49:52;;;;;;;2.05;1.20;;;;;;;;;;5012157;28;20025;-49
2021/08/23 05:52:19;;;;;;;3.78;1.50;;;;;;;;;;5011937;28;20381;-48
2021/08/23 05:54:47;;;;;;;4.03;1.35;;;;;;;;;;5011046;28;20401;-46
2021/08/23 05:57:14;;;;;;;4.50;1.63;;;;;;;;;;5009152;28;20034;-45
2021/08/23 05:59:41;;;;;;;3.45;1.27;;;;;;;;;;5011844;28;20045;-48
2021/08/23 06:02:08;;;;;;;3.83;1.60;;;;;;;;;;5012215;28;20377;-47
2021/08/23 06:04:35;;;;;;;4.07;1.40;;;;;;;;;;5011885;28;20497;-47
2021/08/23 06:07:02;;;;;;;4.80;1.65;;;;;;;;;;5005656;28;20105;-49
2021/08/23 06:09:29;;;;;;;2.72;1.17;;;;;;;;;;5011188;28;20065;-48
2021/08/23 06:11:56;;;;;;;3.60;1.30;;;;;;;;;;5011520;28;20478;-50
2021/08/23 06:14:23;;;;;;;4.57;1.42;;;;;;;;;;5011615;28;22059;-48
2021/08/23 06:16:50;;;;;;;4.47;1.35;;;;;;;;;;5007548;28;20507;-49
2021/08/23 06:19:17;;;;;;;3.53;1.00;;;;;;;;;;5011605;28;20371;-51
2021/08/23 06:21:45;;;;;;;4.80;1.00;;;;;;;;;;5011806;28;20482;-48
2021/08/23 06:24:12;;;;;;;3.25;1.30;;;;;;;;;;5011529;28;20501;-47
2021/08/23 06:26:39;;;;;;;2.90;1.10;;;;;;;;;;5006829;28;20473;-46
2021/08/23 06:29:08;;;;;;;3.75;1.20;;;;;;;;;;5011970;28;20037;-43
2021/08/23 06:31:36;;;;;;;2.50;0.93;;;;;;;;;;5011240;28;20670;-47
2021/08/23 06:34:04;;;;;;;2.20;0.70;;;;;;;;;;5011672;28;20033;-47
2021/08/23 06:36:33;;;;;;;2.28;0.88;;;;;;;;;;5007222;28;20822;-46
2021/08/23 06:39:00;;;;;;;2.78;1.20;;;;;;;;;;5011776;28;20033;-46
2021/08/23 06:41:28;;;;;;;2.70;0.90;;;;;;;;;;5011032;28;20030;-48
2021/08/23 06:43:55;;;;;;;4.10;1.00;;;;;;;;;;5011532;28;20478;-48
2021/08/23 06:46:23;;;;;;;2.47;0.90;;;;;;;;;;5007863;28;20037;-44
2021/08/23 06:48:50;;;;;;;2.38;0.80;;;;;;;;;;5010865;28;20077;-50
2021/08/23 06:51:20;;;;;;;2.28;1.00;;;;;;;;;;5011342;28;20030;-46
2021/08/23 06:53:47;;;;;;;2.10;1.05;;;;;;;;;;5011483;28;20026;-47
2021/08/23 06:56:15;;;;;;;2.70;0.70;;;;;;;;;;5011197;28;20030;-44
2021/08/23 06:58:42;;;;;;;2.60;1.20;;;;;;;;;;5012050;28;20037;-51
2021/08/23 07:01:09;;;;;;;3.45;1.20;;;;;;;;;;5014855;28;20030;-48
2021/08/23 07:03:36;;;;;;;3.28;1.00;;;;;;;;;;5015388;28;20120;-50
2021/08/23 07:06:04;;;;;;;4.68;1.23;;;;;;;;;;5013875;28;20061;-46
2021/08/23 07:08:31;;;;;;;3.78;1.10;;;;;;;;;;5010293;28;20042;-47
2021/08/23 07:11:00;;;;;;;2.00;0.90;;;;;;;;;;5014954;28;20088;-46
2021/08/23 07:13:27;;;;;;;4.15;0.90;;;;;;;;;;5014959;28;20014;-48
2021/08/23 07:15:54;;;;;;;1.20;0.50;;;;;;;;;;5014722;28;20482;-47
2021/08/23 07:18:22;;;;;;;2.08;0.73;;;;;;;;;;5010674;28;20026;-47
2021/08/23 07:20:53;;;;;;;2.22;0.90;;;;;;;;;;5015140;28;20038;-50
2021/08/23 07:23:21;;;;;;;3.13;1.08;;;;;;;;;;5014370;28;20405;-46
2021/08/23 07:25:48;;;;;;;3.53;0.80;;;;;;;;;;5014665;28;20026;-47
2021/08/23 07:28:15;;;;;;;2.13;0.60;;;;;;;;;;5009037;28;20038;-50
2021/08/23 07:30:45;;;;;;;3.63;0.70;;;;;;;;;;5014712;28;20030;-48
2021/08/23 07:33:12;;;;;;;2.58;0.80;;;;;;;;;;5014387;28;20092;-46
2021/08/23 07:35:39;;;;;;;2.42;0.80;;;;;;;;;;5014408;28;20096;-46
2021/08/23 07:38:06;;;;;;;0.88;0.43;;;;;;;;;;5009948;28;20498;-47
2021/08/23 07:40:33;;;;;;;1.50;0.60;;;;;;;;;;5014698;28;20038;-46
2021/08/23 07:43:00;;;;;;;1.88;0.65;;;;;;;;;;5014267;28;20125;-46
2021/08/23 07:45:27;;;;;;;1.58;0.55;;;;;;;;;;5014345;28;20033;-46
2021/08/23 07:47:54;;;;;;;2.05;0.70;;;;;;;;;;5010293;28;20029;-48
2021/08/23 07:50:21;;;;;;;1.75;0.80;;;;;;;;;;5013998;28;20025;-48
2021/08/23 07:52:48;;;;;;;1.77;0.70;;;;;;;;;;5014029;28;20029;-46
2021/08/23 07:55:15;;;;;;;3.50;0.70;;;;;;;;;;5013816;28;20033;-43
2021/08/23 07:57:43;;;;;;;2.50;0.60;;;;;;;;;;5013481;28;20030;-46
2021/08/23 08:00:11;;;;;;;3.47;0.60;;;;;;;;;;5010975;28;20464;-48
2021/08/23 08:02:38;;;;;;;1.98;0.60;;;;;;;;;;5013857;28;20077;-47
2021/08/23 08:05:05;;;;;;;1.17;0.40;;;;;;;;;;5013685;28;20026;-48
2021/08/23 08:07:32;;;;;;;0.75;0.50;;;;;;;;;;5013590;28;20493;-46
2021/08/23 08:09:59;;;;;;;1.65;0.50;;;;;;;;;;5009181;28;20030;-48
2021/08/23 08:12:27;;;;;;;4.82;0.52;;;;;;;;;;5014273;28;20026;-46
2021/08/23 08:14:54;;;;;;;3.08;0.65;;;;;;;;;;5013364;28;20101;-49
2021/08/23 08:17:24;;;;;;;3.03;0.63;;;;;;;;;;5013542;28;20022;-47
2021/08/23 08:19:51;;;;;;;1.95;0.85;;;;;;;;;;5009306;28;20030;-45
2021/08/23 08:22:18;;;;;;;3.38;0.68;;;;;;;;;;5013556;28;20120;-48
2021/08/23 08:24:46;;;;;;;3.00;0.77;;;;;;;;;;5013358;28;20018;-46
2021/08/23 08:27:13;;;;;;;3.38;0.60;;;;;;;;;;5013336;28;20092;-45
2021/08/23 08:29:41;;;;;;;2.00;0.50;;;;;;;;;;5008816;28;20029;-47
2021/08/23 08:32:08;;;;;;;1.38;0.60;;;;;;;;;;5012501;28;20387;-47
2021/08/23 08:34:35;;;;;;;1.63;0.50;;;;;;;;;;5012973;28;20092;-47
2021/08/23 08:37:03;;;;;;;1.70;0.50;;;;;;;;;;5011857;28;20026;-44
2021/08/23 08:39:30;;;;;;;1.23;0.50;;;;;;;;;;5008805;28;20053;-46
2021/08/23 08:41:58;;;;;;;0.57;0.30;;;;;;;;;;5006964;28;20044;-47
2021/08/23 08:44:27;;;;;;;2.17;0.40;;;;;;;;;;5010739;28;20033;-46
2021/08/23 08:46:56;;;;;;;0.80;0.50;;;;;;;;;;5012913;28;20085;-46
2021/08/23 08:49:23;;;;;;;0.82;0.40;;;;;;;;;;5009486;28;20030;-41
2021/08/23 08:51:51;;;;;;;1.38;0.47;;;;;;;;;;5013779;28;20420;-46
2021/08/23 08:54:18;;;;;;;0.93;0.40;;;;;;;;;;5013162;28;20088;-47
2021/08/23 08:56:45;;;;;;;1.02;0.50;;;;;;;;;;5013386;28;20442;-47
2021/08/23 08:59:14;;;;;;;0.70;0.32;;;;;;;;;;5012241;28;20029;-41
2021/08/23 09:01:43;;;;;;;1.00;0.45;;;;;;;;;;5010003;28;20041;-46
2021/08/23 09:04:10;;;;;;;1.60;0.50;;;;;;;;;;5013380;28;20588;-46
2021/08/23 09:06:41;;;;;;;1.65;0.35;;;;;;;;;;5012738;28;20026;-47
2021/08/23 09:09:10;;;;;;;0.80;0.50;;;;;;;;;;5011550;28;20033;-45
2021/08/23 09:11:38;;;;;;;0.70;0.43;;;;;;;;;;5008753;28;20105;-45
2021/08/23 09:14:06;;;;;;;2.40;0.40;;;;;;;;;;5013293;28;20472;-44
2021/08/23 09:16:35;;;;;;;0.60;0.40;;;;;;;;;;5012740;28;20378;-46
2021/08/23 09:19:02;;;;;;;1.45;0.60;;;;;;;;;;5012105;28;20390;-45
2021/08/23 09:21:30;;;;;;;0.75;0.40;;;;;;;;;;5008798;28;20450;-45
2021/08/23 09:23:58;;;;;;;2.10;0.40;;;;;;;;;;5013176;28;20026;-46
2021/08/23 09:26:31;;;;;;;2.50;0.60;;;;;;;;;;5012220;28;20116;-46
2021/08/23 09:29:00;;;;;;;0.80;0.30;;;;;;;;;;5012474;28;20080;-47
2021/08/23 09:31:32;;;;;;;1.90;0.40;;;;;;;;;;5007899;28;20118;-47
2021/08/23 09:34:00;;;;;;;3.65;0.70;;;;;;;;;;5012942;28;20033;-45
2021/08/23 09:36:28;;;;;;;1.15;0.50;;;;;;;;;;5012131;28;20389;-46
2021/08/23 09:38:59;;;;;;;3.10;0.40;;;;;;;;;;5012494;28;20030;-45
2021/08/23 09:41:26;;;;;;;1.60;0.55;;;;;;;;;;5006414;28;20041;-46
2021/08/23 09:44:04;;;;;;;2.15;0.63;;;;;;;;;;5012244;28;20025;-46
2021/08/23 09:46:35;;;;;;;1.38;0.73;;;;;;;;;;5012146;28;20386;-46
2021/08/23 09:49:03;;;;;;;1.45;0.60;;;;;;;;;;5011887;28;20099;-45
2021/08/23 09:51:39;;;;;;;0.70;0.50;;;;;;;;;;5007546;28;20479;-46
2021/08/23 09:54:09;;;;;;;1.40;0.50;;;;;;;;;;5012077;28;20074;-44
2021/08/23 09:56:46;;;;;;;1.88;0.60;;;;;;;;;;5011479;28;20029;-45
2021/08/23 09:59:14;;;;;;;1.52;0.60;;;;;;;;;;5012156;28;20386;-46
2021/08/23 10:01:42;;;;;;;3.30;1.23;;;;;;;;;;5007504;28;20409;-47
2021/08/23 10:04:11;;;;;;;3.95;0.47;;;;;;;;;;5012232;28;20025;-46
2021/08/23 10:06:38;;;;;;;1.52;0.47;;;;;;;;;;5011651;28;20529;-45
2021/08/23 10:09:06;;;;;;;3.15;0.50;;;;;;;;;;5011376;28;20363;-44
2021/08/23 10:11:33;;;;;;;1.35;0.50;;;;;;;;;;5007490;28;20028;-47
2021/08/23 10:14:01;;;;;;;2.95;0.95;;;;;;;;;;5011708;28;20443;-46
2021/08/23 10:16:31;;;;;;;0.70;0.50;;;;;;;;;;5012194;28;20021;-45
2021/08/23 10:18:58;;;;;;;4.50;0.50;;;;;;;;;;5009944;28;20076;-47
2021/08/23 10:21:26;;;;;;;2.08;0.45;;;;;;;;;;5008772;28;20037;-44
2021/08/23 10:23:54;;;;;;;2.13;0.40;;;;;;;;;;5010361;28;20485;-46
2021/08/23 10:26:22;;;;;;;4.03;0.70;;;;;;;;;;5011530;28;20388;-45
2021/08/23 10:28:49;;;;;;;3.50;0.70;;;;;;;;;;5011016;28;20049;-50
2021/08/23 10:31:17;;;;;;;2.85;0.60;;;;;;;;;;5012209;28;20525;-45
2021/08/23 10:33:46;;;;;;;6.68;0.70;;;;;;;;;;5011685;28;20013;-48
2021/08/23 10:36:17;;;;;;;2.35;0.70;;;;;;;;;;5015487;28;20692;-42
2021/08/23 10:38:45;;;;;;;8.07;1.10;;;;;;;;;;5014526;28;20022;-48
2021/08/23 10:41:13;;;;;;;6.90;1.05;;;;;;;;;;5015264;28;20037;-46
2021/08/23 10:43:46;;;;;;;8.00;1.00;;;;;;;;;;5010237;28;20105;-43
2021/08/23 10:46:27;;;;;;;5.43;0.80;;;;;;;;;;5015024;28;20430;-47
2021/08/23 10:48:56;;;;;;;7.35;0.93;;;;;;;;;;5014721;28;20053;-43
2021/08/23 10:51:37;;;;;;;10.18;1.08;;;;;;;;;;5014450;28;20014;-47
2021/08/23 10:54:24;;;;;;;9.15;0.98;;;;;;;;;;5010048;28;20112;-45
2021/08/23 10:56:57;;;;;;;13.15;1.30;;;;;;;;;;5014961;28;20493;-47
2021/08/23 10:59:24;;;;;;;13.63;1.27;;;;;;;;;;5000785;28;20030;-47
2021/08/23 11:01:58;;;;;;;10.50;1.20;;;;;;;;;;5014130;28;20069;-45
2021/08/23 11:04:38;;;;;;;17.77;1.85;;;;;;;;;;5010745;28;20505;-48
2021/08/23 11:07:06;;;;;;;16.83;1.40;;;;;;;;;;5015038;28;20030;-43
2021/08/23 11:09:39;;;;;;;15.18;1.75;;;;;;;;;;5014468;28;20026;-46
2021/08/23 11:12:19;;;;;;;13.20;1.08;;;;;;;;;;5014887;28;20105;-49
2021/08/23 11:14:50;;;;;;;11.52;1.25;;;;;;;;;;5011272;28;20153;-46
2021/08/23 11:17:28;;;;;;;10.27;1.27;;;;;;;;;;5015057;28;20029;-48
2021/08/23 11:19:56;;;;;;;11.70;1.40;;;;;;;;;;5014521;28;20029;-48
2021/08/23 11:22:23;;;;;;;12.18;1.67;;;;;;;;;;5014472;28;20398;-47
2021/08/23 11:24:50;;;;;;;13.10;1.73;;;;;;;;;;5010160;28;20021;-48
2021/08/23 11:27:17;;;;;;;12.20;1.45;;;;;;;;;;5015099;28;20096;-46
2021/08/23 11:29:51;;;;;;;14.45;1.73;;;;;;;;;;5014477;28;20084;-45
2021/08/23 11:32:19;;;;;;;12.40;1.73;;;;;;;;;;5014838;28;20032;-47
2021/08/23 11:34:56;;;;;;;21.30;2.70;;;;;;;;;;5010248;28;20025;-44
2021/08/23 11:37:24;;;;;;;11.60;1.55;;;;;;;;;;5014643;28;20026;-47
2021/08/23 11:40:02;;;;;;;12.32;1.70;;;;;;;;;;5014201;28;20052;-46
2021/08/23 11:42:29;;;;;;;19.05;2.33;;;;;;;;;;5014089;28;20030;-45
2021/08/23 11:44:57;;;;;;;19.55;2.25;;;;;;;;;;5008532;28;20069;-46
2021/08/23 11:47:32;;;;;;;10.30;2.10;;;;;;;;;;5014738;28;20034;-46
2021/08/23 11:49:59;;;;;;;11.93;2.15;;;;;;;;;;5013681;28;20037;-48
2021/08/23 11:52:26;;;;;;;15.85;1.95;;;;;;;;;;5013881;28;20025;-43
2021/08/23 11:54:54;;;;;;;11.57;1.90;;;;;;;;;;5009471;28;20060;-46
2021/08/23 11:57:22;;;;;;;15.73;2.05;;;;;;;;;;5014527;28;20022;-42
2021/08/23 11:59:53;;;;;;;13.25;1.70;;;;;;;;;;5014101;28;20367;-47
2021/08/23 12:02:25;;;;;;;13.13;1.60;;;;;;;;;;5013365;28;20037;-47
2021/08/23 12:04:52;;;;;;;15.73;1.77;;;;;;;;;;5009739;28;20017;-49
2021/08/23 12:07:19;;;;;;;9.35;2.00;;;;;;;;;;5014362;28;20057;-46
2021/08/23 12:09:46;;;;;;;11.85;1.50;;;;;;;;;;5013737;28;20025;-46
2021/08/23 12:12:22;;;;;;;14.43;2.10;;;;;;;;;;5013372;28;20026;-45
2021/08/23 12:14:58;;;;;;;10.93;1.52;;;;;;;;;;5009119;28;20022;-47
2021/08/23 12:17:32;;;;;;;12.32;1.88;;;;;;;;;;5014181;28;20026;-46
2021/08/23 12:20:08;;;;;;;15.07;1.63;;;;;;;;;;5013888;28;20112;-45
2021/08/23 12:22:35;;;;;;;12.73;1.63;;;;;;;;;;5012950;28;20026;-48
2021/08/23 12:25:02;;;;;;;10.43;1.58;;;;;;;;;;5008755;28;20034;-46
2021/08/23 12:27:29;;;;;;;11.70;1.45;;;;;;;;;;5013856;28;20057;-46
2021/08/23 12:29:58;;;;;;;14.23;1.65;;;;;;;;;;5013505;28;20036;-47
2021/08/23 12:32:32;;;;;;;6.47;1.20;;;;;;;;;;5012279;28;20030;-45
2021/08/23 12:35:00;;;;;;;12.38;1.58;;;;;;;;;;5008394;28;20494;-45
2021/08/23 12:37:30;;;;;;;11.35;1.58;;;;;;;;;;5013291;28;20029;-47
2021/08/23 12:39:57;;;;;;;13.20;2.38;;;;;;;;;;5012678;28;20069;-42
2021/08/23 12:42:24;;;;;;;16.80;2.00;;;;;;;;;;5012316;28;20037;-42
2021/08/23 12:44:52;;;;;;;21.15;1.50;;;;;;;;;;5009027;28;20026;-48
2021/08/23 12:47:19;;;;;;;16.00;1.65;;;;;;;;;;5010188;28;20492;-48
2021/08/23 12:49:48;;;;;;;17.98;2.30;;;;;;;;;;5011158;28;20129;-49
2021/08/23 12:52:15;;;;;;;12.13;1.88;;;;;;;;;;5012878;28;20067;-49
2021/08/23 12:54:42;;;;;;;16.33;1.63;;;;;;;;;;5011324;28;20502;-48
2021/08/23 12:57:09;;;;;;;9.23;1.65;;;;;;;;;;5009124;28;20096;-52
2021/08/23 12:59:36;;;;;;;13.68;2.15;;;;;;;;;;5013015;28;20366;-48
2021/08/23 13:02:03;;;;;;;13.30;1.55;;;;;;;;;;5012027;28;20045;-48
2021/08/23 13:04:30;;;;;;;15.93;2.08;;;;;;;;;;5008464;28;20026;-50
2021/08/23 13:06:58;;;;;;;17.23;1.67;;;;;;;;;;5008694;28;20422;-48
2021/08/23 13:09:25;;;;;;;10.95;1.42;;;;;;;;;;5005899;28;20033;-53
2021/08/23 13:11:52;;;;;;;9.25;1.73;;;;;;;;;;5011620;28;20373;-54
2021/08/23 13:14:19;;;;;;;22.10;2.38;;;;;;;;;;5011717;28;20030;-60
2021/08/23 13:16:46;;;;;;;14.85;1.55;;;;;;;;;;4996881;28;20453;-50
2021/08/23 13:19:13;;;;;;;21.00;2.05;;;;;;;;;;5012125;28;20393;-55
2021/08/23 13:21:40;;;;;;;12.52;1.45;;;;;;;;;;5012314;28;20046;-57
2021/08/23 13:24:07;;;;;;;19.42;2.10;;;;;;;;;;5008492;28;20540;-60
2021/08/23 13:26:34;;;;;;;16.42;1.73;;;;;;;;;;5005763;28;20030;-60
2021/08/23 13:29:01;;;;;;;10.15;1.55;;;;;;;;;;5012475;28;20038;-50
2021/08/23 13:31:28;;;;;;;8.05;1.17;;;;;;;;;;5011887;28;20022;-55
2021/08/23 13:33:55;;;;;;;12.70;1.45;;;;;;;;;;5010433;28;20056;-53
2021/08/23 13:36:23;;;;;;;13.35;1.65;;;;;;;;;;5004677;28;20514;-59
2021/08/23 13:38:50;;;;;;;10.73;1.50;;;;;;;;;;5011474;28;20034;-58
2021/08/23 13:41:17;;;;;;;7.25;1.40;;;;;;;;;;5011557;28;20040;-50
2021/08/23 13:43:48;;;;;;;15.75;1.67;;;;;;;;;;5011428;28;20050;-43
2021/08/23 13:46:15;;;;;;;11.02;1.40;;;;;;;;;;5008680;28;20041;-48
2021/08/23 13:48:42;;;;;;;36.50;2.75;;;;;;;;;;5007732;28;20026;-52
2021/08/23 13:51:09;;;;;;;518.90;33.60;;;;;;;;;;5011879;28;20116;-45
2021/08/23 13:53:36;;;;;;;147.65;10.43;;;;;;;;;;5010540;28;20018;-48
2021/08/23 13:56:04;;;;;;;70.55;4.95;;;;;;;;;;5009360;28;20034;-48
2021/08/23 13:58:31;;;;;;;46.20;4.10;;;;;;;;;;5005236;28;20535;-47
2021/08/23 14:00:58;;;;;;;35.67;3.33;;;;;;;;;;5009311;28;20029;-46
2021/08/23 14:03:25;;;;;;;51.72;3.97;;;;;;;;;;5009864;28;20091;-47
2021/08/23 14:05:52;;;;;;;41.70;3.97;;;;;;;;;;5010507;28;20105;-46
2021/08/23 14:08:20;;;;;;;33.60;3.13;;;;;;;;;;5005635;28;20025;-48
2021/08/23 14:10:47;;;;;;;40.38;3.85;;;;;;;;;;5010041;28;20104;-43
2021/08/23 14:13:14;;;;;;;26.02;2.90;;;;;;;;;;5006270;28;20355;-46
2021/08/23 14:15:41;;;;;;;31.13;3.05;;;;;;;;;;5009952;28;20037;-44
2021/08/23 14:18:08;;;;;;;29.55;2.75;;;;;;;;;;5006817;28;20553;-58
2021/08/23 14:20:35;;;;;;;38.38;3.38;;;;;;;;;;5010774;28;20458;-49
2021/08/23 14:23:08;;;;;;;29.92;3.38;;;;;;;;;;4997715;28;20029;-54
2021/08/23 14:25:35;;;;;;;23.52;2.72;;;;;;;;;;5007972;28;20373;-54
2021/08/23 14:28:05;;;;;;;33.92;2.97;;;;;;;;;;5005446;28;20728;-56
2021/08/23 14:30:32;;;;;;;19.38;2.45;;;;;;;;;;5011549;28;20091;-54
2021/08/23 14:32:59;;;;;;;23.85;2.53;;;;;;;;;;5009011;28;20018;-53
2021/08/23 14:35:26;;;;;;;23.33;3.13;;;;;;;;;;5008696;28;20033;-48
2021/08/23 14:37:53;;;;;;;17.80;2.53;;;;;;;;;;5009782;28;20018;-50
2021/08/23 14:40:20;;;;;;;23.83;2.80;;;;;;;;;;5006131;28;20456;-51